createdAt,value
2023-03-06T00:00:11.604Z,95.38
2023-03-06T00:01:11.602Z,95.28
2023-03-06T00:02:11.575Z,95.17
2023-03-06T00:03:11.572Z,95.38
2023-03-06T00:04:11.585Z,95.69
2023-03-06T00:05:11.563Z,95.79
2023-03-06T00:06:11.662Z,95.79
2023-03-06T00:07:11.533Z,95.69
2023-03-06T00:08:11.527Z,95.69
2023-03-06T00:09:11.521Z,95.79
2023-03-06T00:10:11.489Z,96.00
2023-03-06T00:11:11.523Z,96.11
2023-03-06T00:12:11.473Z,95.69
2023-03-06T00:13:11.473Z,95.59
2023-03-06T00:14:11.476Z,95.59
2023-03-06T00:15:11.456Z,95.48
2023-03-06T00:16:11.488Z,95.38
2023-03-06T00:17:11.431Z,95.59
2023-03-06T00:18:11.410Z,95.79
2023-03-06T00:19:11.410Z,95.79
2023-03-06T00:20:11.390Z,95.53
2023-03-06T00:21:11.383Z,95.32
2023-03-06T00:22:11.379Z,95.53
2023-03-06T00:23:11.375Z,95.69
2023-03-06T00:24:11.364Z,95.69
2023-03-06T00:25:11.340Z,95.63
2023-03-06T00:26:11.332Z,95.38
2023-03-06T00:27:11.327Z,95.28
2023-03-06T00:28:11.308Z,95.38
2023-03-06T00:29:11.332Z,95.17
2023-03-06T00:30:11.289Z,95.17
2023-03-06T00:31:11.294Z,95.17
2023-03-06T00:32:11.303Z,95.07
2023-03-06T00:33:11.268Z,95.07
2023-03-06T00:34:11.252Z,95.38
2023-03-06T00:35:11.250Z,95.48
2023-03-06T00:36:11.218Z,95.59
2023-03-06T00:37:11.210Z,95.69
2023-03-06T00:38:11.200Z,95.79
2023-03-06T00:39:11.198Z,95.90
2023-03-06T00:40:11.201Z,95.84
2023-03-06T00:41:11.186Z,95.73
2023-03-06T00:42:11.149Z,95.53
2023-03-06T00:43:11.155Z,95.21
2023-03-06T00:44:11.141Z,95.01
2023-03-06T00:45:11.139Z,94.80
2023-03-06T00:46:11.221Z,93.87
2023-03-06T00:47:11.130Z,93.76
2023-03-06T00:48:11.086Z,93.87
2023-03-06T00:49:11.100Z,93.76
2023-03-06T00:50:11.105Z,93.45
2023-03-06T00:51:13.848Z,93.49
2023-03-06T00:52:11.040Z,93.60
2023-03-06T00:53:11.056Z,93.60
2023-03-06T00:54:11.028Z,93.70
2023-03-06T00:55:11.044Z,93.91
2023-03-06T00:56:10.996Z,94.12
2023-03-06T00:57:11.000Z,94.22
2023-03-06T00:58:10.998Z,94.43
2023-03-06T00:59:10.991Z,94.53
2023-03-06T01:00:10.968Z,94.84
2023-03-06T01:01:11.021Z,94.84
2023-03-06T01:02:11.009Z,95.05
2023-03-06T01:03:10.938Z,95.26
2023-03-06T01:04:10.934Z,95.26
2023-03-06T01:05:10.934Z,95.15
2023-03-06T01:06:10.894Z,95.15
2023-03-06T01:07:10.892Z,95.15
2023-03-06T01:08:10.866Z,95.26
2023-03-06T01:09:10.870Z,95.05
2023-03-06T01:10:10.852Z,95.15
2023-03-06T01:11:10.859Z,95.05
2023-03-06T01:12:10.827Z,95.05
2023-03-06T01:13:10.817Z,95.15
2023-03-06T01:14:10.820Z,95.15
2023-03-06T01:15:10.804Z,95.47
2023-03-06T01:16:10.817Z,95.57
2023-03-06T01:17:10.782Z,95.67
2023-03-06T01:18:10.755Z,95.57
2023-03-06T01:19:10.889Z,95.36
2023-03-06T01:20:10.734Z,95.67
2023-03-06T01:21:10.736Z,95.89
2023-03-06T01:22:10.713Z,96.09
2023-03-06T01:23:10.706Z,96.09
2023-03-06T01:24:10.710Z,95.99
2023-03-06T01:25:10.681Z,95.78
2023-03-06T01:26:10.673Z,95.78
2023-03-06T01:27:10.660Z,95.89
2023-03-06T01:28:10.644Z,95.89
2023-03-06T01:29:10.652Z,95.89
2023-03-06T01:30:10.621Z,96.20
2023-03-06T01:31:10.639Z,96.09
2023-03-06T01:32:10.615Z,95.99
2023-03-06T01:33:10.595Z,95.99
2023-03-06T01:34:10.599Z,95.89
2023-03-06T01:35:10.611Z,95.78
2023-03-06T01:36:10.566Z,95.67
2023-03-06T01:37:10.556Z,95.78
2023-03-06T01:38:10.566Z,95.89
2023-03-06T01:39:10.548Z,95.89
2023-03-06T01:40:10.528Z,95.99
2023-03-06T01:41:10.534Z,95.99
2023-03-06T01:42:10.500Z,96.09
2023-03-06T01:43:10.496Z,95.99
2023-03-06T01:44:10.498Z,96.09
2023-03-06T01:45:10.471Z,96.30
2023-03-06T01:46:10.539Z,96.34
2023-03-06T01:47:10.452Z,96.45
2023-03-06T01:48:10.462Z,96.30
2023-03-06T01:49:10.452Z,96.34
2023-03-06T01:50:10.427Z,96.66
2023-03-06T01:51:10.410Z,96.72
2023-03-06T01:52:10.399Z,96.61
2023-03-06T01:53:10.395Z,96.72
2023-03-06T01:54:10.400Z,96.92
2023-03-06T01:55:10.378Z,97.13
2023-03-06T01:56:10.396Z,97.13
2023-03-06T01:57:10.347Z,97.03
2023-03-06T01:58:10.342Z,97.03
2023-03-06T01:59:10.339Z,97.07
2023-03-06T02:00:10.320Z,97.17
2023-03-06T02:01:10.357Z,97.17
2023-03-06T02:02:10.315Z,97.17
2023-03-06T02:03:10.345Z,97.17
2023-03-06T02:04:10.282Z,97.28
2023-03-06T02:05:10.282Z,97.28
2023-03-06T02:06:10.251Z,97.28
2023-03-06T02:07:10.250Z,97.28
2023-03-06T02:08:10.229Z,97.28
2023-03-06T02:09:10.235Z,97.28
2023-03-06T02:10:10.226Z,97.38
2023-03-06T02:11:10.274Z,97.49
2023-03-06T02:12:10.193Z,97.49
2023-03-06T02:13:10.185Z,97.49
2023-03-06T02:14:10.198Z,97.49
2023-03-06T02:15:10.165Z,97.49
2023-03-06T02:16:10.156Z,97.49
2023-03-06T02:17:10.168Z,97.38
2023-03-06T02:18:10.136Z,97.49
2023-03-06T02:19:10.127Z,97.38
2023-03-06T02:20:10.123Z,97.38
2023-03-06T02:21:10.108Z,97.38
2023-03-06T02:22:10.103Z,97.38
2023-03-06T02:23:10.084Z,97.49
2023-03-06T02:24:10.086Z,97.49
2023-03-06T02:25:10.063Z,97.59
2023-03-06T02:26:10.058Z,97.28
2023-03-06T02:27:10.054Z,97.28
2023-03-06T02:28:10.044Z,97.28
2023-03-06T02:29:10.022Z,97.38
2023-03-06T02:30:10.010Z,97.49
2023-03-06T02:31:10.005Z,97.49
2023-03-06T02:32:10.020Z,97.59
2023-03-06T02:33:09.976Z,97.59
2023-03-06T02:34:09.975Z,97.70
2023-03-06T02:35:09.947Z,97.75
2023-03-06T02:36:09.940Z,97.75
2023-03-06T02:37:09.936Z,97.75
2023-03-06T02:38:09.925Z,97.75
2023-03-06T02:39:09.947Z,97.75
2023-03-06T02:40:09.924Z,97.75
2023-03-06T02:41:09.881Z,97.86
2023-03-06T02:42:09.883Z,97.75
2023-03-06T02:43:09.875Z,97.55
2023-03-06T02:44:09.868Z,97.44
2023-03-06T02:45:09.839Z,97.44
2023-03-06T02:46:09.865Z,97.55
2023-03-06T02:47:09.850Z,97.75
2023-03-06T02:48:09.815Z,97.65
2023-03-06T02:49:09.805Z,97.65
2023-03-06T02:50:09.802Z,97.65
2023-03-06T02:51:09.814Z,97.65
2023-03-06T02:52:09.766Z,97.65
2023-03-06T02:53:09.754Z,97.65
2023-03-06T02:54:09.757Z,97.75
2023-03-06T02:55:09.732Z,97.75
2023-03-06T02:56:09.722Z,97.65
2023-03-06T02:57:09.729Z,97.55
2023-03-06T02:58:09.723Z,97.49
2023-03-06T02:59:09.696Z,97.49
2023-03-06T03:00:09.680Z,97.38
2023-03-06T03:01:09.680Z,97.17
2023-03-06T03:02:09.664Z,97.07
2023-03-06T03:03:09.640Z,97.07
2023-03-06T03:04:09.690Z,97.17
2023-03-06T03:05:09.624Z,97.17
2023-03-06T03:06:09.618Z,97.28
2023-03-06T03:07:09.601Z,97.38
2023-03-06T03:08:09.603Z,97.53
2023-03-06T03:09:09.588Z,97.59
2023-03-06T03:10:09.586Z,97.53
2023-03-06T03:11:09.573Z,97.53
2023-03-06T03:12:09.564Z,97.43
2023-03-06T03:13:09.542Z,97.43
2023-03-06T03:14:09.600Z,97.74
2023-03-06T03:15:09.537Z,97.91
2023-03-06T03:16:09.532Z,97.80
2023-03-06T03:17:09.500Z,97.80
2023-03-06T03:18:09.497Z,97.59
2023-03-06T03:19:09.491Z,97.59
2023-03-06T03:20:09.466Z,97.49
2023-03-06T03:21:09.452Z,97.38
2023-03-06T03:22:09.442Z,97.22
2023-03-06T03:23:09.432Z,97.12
2023-03-06T03:24:09.442Z,97.01
2023-03-06T03:25:09.423Z,96.80
2023-03-06T03:26:09.412Z,96.75
2023-03-06T03:27:09.391Z,96.75
2023-03-06T03:28:09.391Z,96.85
2023-03-06T03:29:09.389Z,96.95
2023-03-06T03:30:09.365Z,97.16
2023-03-06T03:31:09.392Z,97.37
2023-03-06T03:32:09.389Z,97.58
2023-03-06T03:33:09.329Z,97.58
2023-03-06T03:34:09.350Z,97.62
2023-03-06T03:35:09.305Z,97.62
2023-03-06T03:36:09.330Z,97.72
2023-03-06T03:37:09.283Z,97.72
2023-03-06T03:38:09.274Z,97.83
2023-03-06T03:39:09.278Z,97.83
2023-03-06T03:40:09.262Z,97.98
2023-03-06T03:41:09.248Z,97.98
2023-03-06T03:42:09.237Z,98.08
2023-03-06T03:43:09.221Z,98.19
2023-03-06T03:44:09.235Z,98.19
2023-03-06T03:45:09.209Z,98.29
2023-03-06T03:46:09.263Z,98.39
2023-03-06T03:47:09.185Z,98.56
2023-03-06T03:48:09.169Z,98.66
2023-03-06T03:49:09.170Z,98.66
2023-03-06T03:50:09.159Z,98.66
2023-03-06T03:51:09.137Z,98.66
2023-03-06T03:52:09.124Z,98.72
2023-03-06T03:53:09.124Z,98.83
2023-03-06T03:54:09.117Z,98.83
2023-03-06T03:55:09.097Z,98.93
2023-03-06T03:56:09.104Z,98.99
2023-03-06T03:57:09.079Z,98.99
2023-03-06T03:58:09.062Z,98.99
2023-03-06T03:59:09.057Z,98.78
2023-03-06T04:00:09.044Z,98.47
2023-03-06T04:01:09.025Z,98.31
2023-03-06T04:02:09.074Z,98.20
2023-03-06T04:03:09.012Z,98.10
2023-03-06T04:04:09.010Z,97.89
2023-03-06T04:05:09.055Z,97.94
2023-03-06T04:06:08.978Z,98.04
2023-03-06T04:07:08.966Z,98.04
2023-03-06T04:08:08.958Z,98.14
2023-03-06T04:09:08.947Z,98.14
2023-03-06T04:10:08.936Z,98.35
2023-03-06T04:11:08.917Z,98.56
2023-03-06T04:12:08.929Z,98.66
2023-03-06T04:13:10.179Z,98.66
2023-03-06T04:14:08.927Z,98.97
2023-03-06T04:15:08.884Z,99.04
2023-03-06T04:16:08.931Z,99.14
2023-03-06T04:17:08.850Z,99.24
2023-03-06T04:18:08.848Z,99.24
2023-03-06T04:19:08.846Z,99.14
2023-03-06T04:20:08.838Z,99.04
2023-03-06T04:21:08.833Z,98.83
2023-03-06T04:22:08.801Z,98.83
2023-03-06T04:23:08.819Z,98.93
2023-03-06T04:24:08.811Z,99.04
2023-03-06T04:25:08.815Z,99.04
2023-03-06T04:26:08.756Z,98.93
2023-03-06T04:27:08.747Z,98.99
2023-03-06T04:28:08.749Z,98.99
2023-03-06T04:29:08.742Z,98.88
2023-03-06T04:30:08.722Z,98.88
2023-03-06T04:31:08.741Z,98.57
2023-03-06T04:32:08.827Z,98.52
2023-03-06T04:33:08.679Z,98.52
2023-03-06T04:34:08.702Z,98.52
2023-03-06T04:35:08.661Z,98.52
2023-03-06T04:36:08.656Z,98.57
2023-03-06T04:37:08.642Z,98.47
2023-03-06T04:38:08.640Z,98.57
2023-03-06T04:39:08.685Z,98.68
2023-03-06T04:40:08.640Z,98.57
2023-03-06T04:41:08.622Z,98.57
2023-03-06T04:42:08.595Z,98.68
2023-03-06T04:43:08.585Z,98.68
2023-03-06T04:44:08.593Z,98.78
2023-03-06T04:45:08.582Z,98.78
2023-03-06T04:46:08.601Z,98.57
2023-03-06T04:47:08.547Z,98.57
2023-03-06T04:48:08.530Z,98.57
2023-03-06T04:49:08.523Z,98.47
2023-03-06T04:50:08.519Z,98.47
2023-03-06T04:51:08.488Z,98.36
2023-03-06T04:52:08.500Z,98.36
2023-03-06T04:53:08.477Z,98.47
2023-03-06T04:54:08.498Z,98.57
2023-03-06T04:55:08.459Z,98.68
2023-03-06T04:56:08.451Z,98.57
2023-03-06T04:57:08.445Z,98.68
2023-03-06T04:58:08.439Z,98.68
2023-03-06T04:59:08.457Z,98.63
2023-03-06T05:00:08.439Z,98.53
2023-03-06T05:01:08.481Z,98.53
2023-03-06T05:02:08.457Z,98.43
2023-03-06T05:03:08.364Z,98.16
2023-03-06T05:04:08.370Z,97.85
2023-03-06T05:05:08.340Z,97.85
2023-03-06T05:06:08.331Z,97.85
2023-03-06T05:07:08.322Z,97.85
2023-03-06T05:08:08.308Z,97.95
2023-03-06T05:09:08.330Z,98.16
2023-03-06T05:10:08.282Z,98.36
2023-03-06T05:11:08.266Z,98.36
2023-03-06T05:12:08.261Z,98.26
2023-03-06T05:13:08.287Z,98.26
2023-03-06T05:14:08.261Z,98.26
2023-03-06T05:15:08.223Z,98.26
2023-03-06T05:16:08.295Z,98.26
2023-03-06T05:17:08.213Z,98.26
2023-03-06T05:18:08.207Z,98.36
2023-03-06T05:19:08.191Z,98.47
2023-03-06T05:20:08.173Z,98.47
2023-03-06T05:21:08.185Z,98.36
2023-03-06T05:22:08.168Z,98.36
2023-03-06T05:23:08.138Z,98.52
2023-03-06T05:24:08.139Z,98.52
2023-03-06T05:25:08.130Z,98.57
2023-03-06T05:26:08.131Z,98.57
2023-03-06T05:27:08.096Z,98.68
2023-03-06T05:28:08.097Z,98.72
2023-03-06T05:29:08.085Z,98.68
2023-03-06T05:30:08.076Z,98.62
2023-03-06T05:31:08.054Z,98.62
2023-03-06T05:32:08.260Z,98.72
2023-03-06T05:33:08.024Z,98.72
2023-03-06T05:34:08.084Z,98.83
2023-03-06T05:35:08.007Z,98.99
2023-03-06T05:36:08.017Z,98.99
2023-03-06T05:37:08.031Z,99.10
2023-03-06T05:38:07.986Z,99.15
2023-03-06T05:39:07.980Z,99.15
2023-03-06T05:40:07.980Z,99.15
2023-03-06T05:41:07.953Z,99.15
2023-03-06T05:42:07.948Z,99.15
2023-03-06T05:43:07.933Z,98.94
2023-03-06T05:44:07.928Z,98.84
2023-03-06T05:45:07.900Z,98.74
2023-03-06T05:46:08.029Z,98.78
2023-03-06T05:47:07.824Z,98.78
2023-03-06T05:48:07.841Z,98.78
2023-03-06T05:49:07.821Z,98.68
2023-03-06T05:50:07.804Z,98.68
2023-03-06T05:51:07.857Z,98.68
2023-03-06T05:52:07.794Z,98.68
2023-03-06T05:53:07.765Z,98.68
2023-03-06T05:54:07.770Z,98.68
2023-03-06T05:55:07.793Z,98.68
2023-03-06T05:56:07.734Z,98.68
2023-03-06T05:57:07.728Z,98.68
2023-03-06T05:58:07.727Z,98.68
2023-03-06T05:59:07.716Z,98.68
2023-03-06T06:00:07.686Z,98.68
2023-03-06T06:01:07.677Z,98.78
2023-03-06T06:02:07.699Z,98.57
2023-03-06T06:03:07.700Z,98.57
2023-03-06T06:04:07.692Z,98.53
2023-03-06T06:05:07.654Z,98.43
2023-03-06T06:06:07.631Z,98.32
2023-03-06T06:07:07.630Z,97.91
2023-03-06T06:08:07.622Z,97.59
2023-03-06T06:09:07.596Z,97.49
2023-03-06T06:10:07.607Z,97.07
2023-03-06T06:11:07.582Z,96.97
2023-03-06T06:12:07.565Z,96.86
2023-03-06T06:13:07.550Z,96.97
2023-03-06T06:14:07.585Z,97.07
2023-03-06T06:15:07.549Z,97.07
2023-03-06T06:16:07.572Z,97.17
2023-03-06T06:17:07.526Z,97.03
2023-03-06T06:18:07.543Z,96.72
2023-03-06T06:19:07.511Z,96.45
2023-03-06T06:20:07.477Z,96.14
2023-03-06T06:21:07.469Z,95.62
2023-03-06T06:22:07.485Z,94.95
2023-03-06T06:23:07.440Z,94.74
2023-03-06T06:24:07.469Z,94.64
2023-03-06T06:25:07.444Z,94.78
2023-03-06T06:26:07.410Z,94.64
2023-03-06T06:27:07.410Z,94.68
2023-03-06T06:28:07.403Z,94.68
2023-03-06T06:29:07.391Z,94.74
2023-03-06T06:30:07.393Z,94.68
2023-03-06T06:31:07.374Z,94.53
2023-03-06T06:32:07.408Z,94.64
2023-03-06T06:33:07.352Z,94.84
2023-03-06T06:34:07.326Z,94.74
2023-03-06T06:35:07.332Z,94.53
2023-03-06T06:36:07.306Z,94.53
2023-03-06T06:37:07.296Z,94.74
2023-03-06T06:38:07.276Z,94.84
2023-03-06T06:39:07.295Z,94.64
2023-03-06T06:40:07.274Z,94.64
2023-03-06T06:42:28.919Z,95.05
2023-03-06T06:43:07.232Z,95.36
2023-03-06T06:44:08.359Z,94.89
2023-03-06T06:45:07.233Z,94.43
2023-03-06T06:46:36.485Z,94.12
2023-03-06T06:47:24.893Z,94.22
2023-03-06T06:48:07.252Z,94.64
2023-03-06T06:49:07.205Z,94.95
2023-03-06T06:50:07.157Z,95.05
2023-03-06T06:51:07.157Z,95.26
2023-03-06T06:52:07.145Z,94.95
2023-03-06T06:53:07.132Z,94.53
2023-03-06T06:54:07.109Z,94.22
2023-03-06T06:55:07.116Z,94.43
2023-03-06T06:56:07.093Z,94.53
2023-03-06T06:57:07.093Z,94.53
2023-03-06T06:58:07.068Z,94.53
2023-03-06T06:59:16.685Z,94.43
2023-03-06T07:00:07.102Z,94.01
2023-03-06T07:01:07.070Z,93.39
2023-03-06T07:02:07.029Z,93.60
2023-03-06T07:03:07.017Z,93.91
2023-03-06T07:04:07.047Z,94.32
2023-03-06T07:05:07.001Z,94.32
2023-03-06T07:06:06.978Z,94.12
2023-03-06T07:07:06.979Z,94.01
2023-03-06T07:08:06.965Z,94.22
2023-03-06T07:09:06.952Z,94.12
2023-03-06T07:10:07.009Z,93.80
2023-03-06T07:11:06.942Z,93.70
2023-03-06T07:12:06.932Z,93.91
2023-03-06T07:13:06.930Z,94.32
2023-03-06T07:14:06.905Z,94.64
2023-03-06T07:15:06.900Z,94.53
2023-03-06T07:16:07.007Z,94.53
2023-03-06T07:17:06.865Z,94.43
2023-03-06T07:18:06.850Z,94.53
2023-03-06T07:19:06.857Z,94.53
2023-03-06T07:20:06.857Z,94.64
2023-03-06T07:21:06.836Z,94.84
2023-03-06T07:22:06.810Z,94.43
2023-03-06T07:23:06.815Z,94.43
2023-03-06T07:24:06.812Z,93.91
2023-03-06T07:25:07.037Z,93.91
2023-03-06T07:26:06.766Z,94.28
2023-03-06T07:27:06.756Z,94.18
2023-03-06T07:28:06.807Z,94.28
2023-03-06T07:29:06.749Z,94.49
2023-03-06T07:30:06.736Z,94.49
2023-03-06T07:31:06.798Z,93.97
2023-03-06T07:32:06.763Z,93.24
2023-03-06T07:33:06.712Z,93.24
2023-03-06T07:34:06.696Z,92.93
2023-03-06T07:35:19.839Z,92.93
2023-03-06T07:36:06.697Z,92.61
2023-03-06T07:37:06.701Z,93.45
2023-03-06T07:38:06.671Z,93.03
2023-03-06T07:39:06.634Z,92.93
2023-03-06T07:40:06.648Z,92.72
2023-03-06T07:41:06.636Z,92.20
2023-03-06T07:42:06.606Z,92.72
2023-03-06T07:43:18.723Z,92.72
2023-03-06T07:44:06.601Z,92.93
2023-03-06T07:45:06.598Z,92.93
2023-03-06T07:46:06.589Z,92.88
2023-03-06T07:47:06.551Z,92.68
2023-03-06T07:48:06.634Z,92.26
2023-03-06T07:49:06.551Z,92.47
2023-03-06T07:50:06.531Z,93.10
2023-03-06T07:51:06.508Z,93.10
2023-03-06T07:52:06.488Z,91.95
2023-03-06T07:53:06.527Z,91.33
2023-03-06T07:54:06.539Z,91.70
2023-03-06T07:55:06.491Z,90.91
2023-03-06T07:56:06.558Z,90.81
2023-03-06T07:57:06.583Z,91.33
2023-03-06T07:58:06.447Z,91.49
2023-03-06T07:59:06.479Z,91.53
2023-03-06T08:00:06.453Z,91.43
2023-03-06T08:01:06.413Z,91.53
2023-03-06T08:02:06.435Z,91.80
2023-03-06T08:03:06.435Z,91.12
2023-03-06T08:04:06.444Z,90.66
2023-03-06T08:05:06.397Z,90.50
2023-03-06T08:06:06.364Z,90.70
2023-03-06T08:07:06.399Z,90.81
2023-03-06T08:08:06.472Z,90.19
2023-03-06T08:09:06.344Z,89.87
2023-03-06T08:10:06.325Z,89.77
2023-03-06T08:11:06.305Z,90.60
2023-03-06T08:12:06.281Z,89.67
2023-03-06T08:13:06.284Z,89.83
2023-03-06T08:14:06.283Z,90.08
2023-03-06T08:15:06.264Z,90.56
2023-03-06T08:16:06.322Z,89.87
2023-03-06T08:17:06.403Z,89.77
2023-03-06T08:18:06.236Z,89.62
2023-03-06T08:19:06.219Z,89.62
2023-03-06T08:20:06.219Z,88.79
2023-03-06T08:21:06.195Z,89.42
2023-03-06T08:22:06.172Z,89.11
2023-03-06T08:23:06.176Z,89.21
2023-03-06T08:24:07.501Z,88.38
2023-03-06T08:25:06.161Z,89.11
2023-03-06T08:26:06.133Z,89.11
2023-03-06T08:27:06.340Z,89.00
2023-03-06T08:28:06.628Z,88.79
2023-03-06T08:29:06.104Z,89.00
2023-03-06T08:30:06.122Z,89.52
2023-03-06T08:31:06.150Z,88.90
2023-03-06T08:32:06.142Z,89.11
2023-03-06T08:33:06.057Z,89.62
2023-03-06T08:34:06.061Z,89.62
2023-03-06T08:35:06.050Z,88.79
2023-03-06T08:36:06.053Z,88.79
2023-03-06T08:37:06.054Z,89.73
2023-03-06T08:38:06.004Z,89.73
2023-03-06T08:39:06.014Z,89.00
2023-03-06T08:40:06.005Z,89.11
2023-03-06T08:41:06.164Z,87.96
2023-03-06T08:42:05.973Z,88.07
2023-03-06T08:43:05.965Z,89.21
2023-03-06T08:44:05.979Z,88.13
2023-03-06T08:45:05.963Z,87.40
2023-03-06T08:46:05.973Z,87.51
2023-03-06T08:47:05.914Z,86.57
2023-03-06T08:48:05.918Z,85.95
2023-03-06T08:49:05.887Z,85.64
2023-03-06T08:50:05.914Z,85.95
2023-03-06T08:51:05.869Z,85.22
2023-03-06T08:52:05.856Z,85.22
2023-03-06T08:53:05.848Z,86.02
2023-03-06T08:54:05.874Z,85.08
2023-03-06T08:55:05.882Z,83.84
2023-03-06T08:56:05.838Z,85.60
2023-03-06T08:57:05.869Z,86.80
2023-03-06T08:58:05.791Z,86.39
2023-03-06T08:59:05.827Z,85.56
2023-03-06T09:00:05.787Z,84.48
2023-03-06T09:01:05.860Z,83.76
2023-03-06T09:02:05.816Z,83.48
2023-03-06T09:03:05.741Z,83.48
2023-03-06T09:04:05.727Z,83.17
2023-03-06T09:05:05.741Z,82.76
2023-03-06T09:06:05.709Z,83.38
2023-03-06T09:07:05.706Z,84.42
2023-03-06T09:08:05.676Z,83.14
2023-03-06T09:09:05.700Z,82.86
2023-03-06T09:10:05.670Z,82.34
2023-03-06T09:11:05.651Z,82.97
2023-03-06T09:12:05.655Z,84.28
2023-03-06T09:13:05.636Z,82.62
2023-03-06T09:14:05.675Z,82.51
2023-03-06T09:15:05.636Z,83.31
2023-03-06T09:16:05.616Z,80.96
2023-03-06T09:17:05.668Z,80.61
2023-03-06T09:18:05.616Z,80.61
2023-03-06T09:19:05.561Z,81.23
2023-03-06T09:20:05.571Z,80.92
2023-03-06T09:21:05.554Z,81.02
2023-03-06T09:22:05.542Z,79.47
2023-03-06T09:23:05.532Z,79.68
2023-03-06T09:24:05.536Z,79.78
2023-03-06T09:25:05.533Z,79.85
2023-03-06T09:26:05.524Z,79.99
2023-03-06T09:27:05.586Z,79.37
2023-03-06T09:28:11.709Z,80.51
2023-03-06T09:29:05.478Z,80.44
2023-03-06T09:30:05.454Z,81.68
2023-03-06T09:31:05.475Z,82.27
2023-03-06T09:32:05.488Z,80.92
2023-03-06T09:33:05.430Z,81.96
2023-03-06T09:34:05.407Z,81.75
2023-03-06T09:35:05.413Z,81.23
2023-03-06T09:36:05.390Z,81.75
2023-03-06T09:37:05.373Z,81.65
2023-03-06T09:38:05.368Z,81.13
2023-03-06T09:39:05.370Z,79.58
2023-03-06T09:40:05.414Z,80.30
2023-03-06T09:41:05.331Z,79.30
2023-03-06T09:42:05.332Z,80.09
2023-03-06T09:43:05.326Z,81.34
2023-03-06T09:44:05.305Z,80.40
2023-03-06T09:45:05.375Z,80.61
2023-03-06T09:46:05.314Z,79.06
2023-03-06T09:47:05.267Z,80.40
2023-03-06T09:48:05.259Z,79.47
2023-03-06T09:49:05.249Z,79.06
2023-03-06T09:50:05.276Z,79.78
2023-03-06T09:51:05.224Z,79.27
2023-03-06T09:52:05.211Z,79.99
2023-03-06T09:53:05.200Z,79.06
2023-03-06T09:54:05.188Z,79.37
2023-03-06T09:55:05.248Z,79.27
2023-03-06T09:56:05.205Z,79.27
2023-03-06T09:57:05.158Z,79.58
2023-03-06T09:58:07.373Z,78.33
2023-03-06T09:59:05.132Z,78.44
2023-03-06T10:00:05.147Z,78.23
2023-03-06T10:01:05.120Z,78.12
2023-03-06T10:02:05.160Z,78.54
2023-03-06T10:03:05.167Z,78.23
2023-03-06T10:04:05.072Z,78.44
2023-03-06T10:05:05.232Z,78.96
2023-03-06T10:06:05.055Z,78.85
2023-03-06T10:07:05.063Z,79.27
2023-03-06T10:08:05.050Z,77.71
2023-03-06T10:09:05.027Z,78.61
2023-03-06T10:10:05.020Z,77.47
2023-03-06T10:11:05.004Z,77.88
2023-03-06T10:12:04.992Z,77.74
2023-03-06T10:13:04.989Z,77.53
2023-03-06T10:14:04.970Z,76.81
2023-03-06T10:15:05.033Z,75.05
2023-03-06T10:16:04.986Z,75.26
2023-03-06T10:17:04.943Z,76.19
2023-03-06T10:18:04.936Z,75.67
2023-03-06T10:19:04.919Z,76.19
2023-03-06T10:20:04.928Z,75.50
2023-03-06T10:21:18.639Z,75.40
2023-03-06T10:22:04.894Z,76.12
2023-03-06T10:23:05.344Z,76.23
2023-03-06T10:24:04.883Z,77.26
2023-03-06T10:25:04.864Z,78.81
2023-03-06T10:26:04.881Z,78.81
2023-03-06T10:27:04.860Z,78.19
2023-03-06T10:28:04.824Z,76.84
2023-03-06T10:29:04.815Z,76.84
2023-03-06T10:30:04.803Z,76.23
2023-03-06T10:31:04.875Z,76.64
2023-03-06T10:32:04.869Z,76.74
2023-03-06T10:33:04.855Z,76.02
2023-03-06T10:34:04.770Z,76.84
2023-03-06T10:35:04.772Z,75.92
2023-03-06T10:36:04.869Z,76.02
2023-03-06T10:37:04.732Z,77.26
2023-03-06T10:38:04.720Z,76.71
2023-03-06T10:39:04.715Z,76.29
2023-03-06T10:40:04.781Z,76.40
2023-03-06T10:41:04.699Z,77.53
2023-03-06T10:42:04.674Z,77.53
2023-03-06T10:43:11.379Z,76.29
2023-03-06T10:44:04.716Z,77.95
2023-03-06T10:45:04.647Z,79.40
2023-03-06T10:46:04.680Z,77.53
2023-03-06T10:47:04.646Z,76.91
2023-03-06T10:48:04.621Z,77.95
2023-03-06T10:49:04.636Z,77.26
2023-03-06T10:50:06.646Z,76.91
2023-03-06T10:51:09.839Z,77.53
2023-03-06T10:52:04.586Z,77.39
2023-03-06T10:53:04.559Z,77.81
2023-03-06T10:54:04.548Z,77.29
2023-03-06T10:55:04.539Z,77.19
2023-03-06T10:56:04.550Z,75.60
2023-03-06T10:57:04.514Z,74.71
2023-03-06T10:58:04.510Z,75.63
2023-03-06T10:59:04.520Z,76.15
2023-03-06T11:00:04.506Z,77.15
2023-03-06T11:01:04.485Z,76.43
2023-03-06T11:02:04.512Z,76.05
2023-03-06T11:03:04.455Z,76.15
2023-03-06T11:04:04.449Z,76.98
2023-03-06T11:05:04.432Z,77.81
2023-03-06T11:06:04.443Z,77.56
2023-03-06T11:07:04.408Z,77.56
2023-03-06T11:08:04.409Z,76.74
2023-03-06T11:09:04.407Z,74.81
2023-03-06T11:10:04.385Z,75.09
2023-03-06T11:11:04.422Z,74.77
2023-03-06T11:12:04.530Z,74.98
2023-03-06T11:13:04.693Z,74.36
2023-03-06T11:14:04.348Z,74.77
2023-03-06T11:15:04.328Z,75.95
2023-03-06T11:16:04.343Z,74.29
2023-03-06T11:17:04.298Z,74.71
2023-03-06T11:18:04.360Z,75.53
2023-03-06T11:19:04.297Z,75.88
2023-03-06T11:20:04.288Z,76.50
2023-03-06T11:21:04.282Z,75.98
2023-03-06T11:22:04.283Z,76.61
2023-03-06T11:23:04.246Z,75.36
2023-03-06T11:24:04.224Z,74.95
2023-03-06T11:25:04.232Z,74.53
2023-03-06T11:26:04.223Z,75.15
2023-03-06T11:27:04.198Z,75.15
2023-03-06T11:28:04.190Z,75.05
2023-03-06T11:29:04.245Z,75.50
2023-03-06T11:30:04.173Z,75.81
2023-03-06T11:31:04.215Z,75.29
2023-03-06T11:32:04.204Z,75.40
2023-03-06T11:33:04.130Z,75.50
2023-03-06T11:34:04.127Z,75.57
2023-03-06T11:35:04.108Z,75.50
2023-03-06T11:36:04.115Z,75.09
2023-03-06T11:37:04.085Z,76.02
2023-03-06T11:38:04.082Z,75.50
2023-03-06T11:39:04.079Z,76.29
2023-03-06T11:40:04.066Z,75.98
2023-03-06T11:41:04.054Z,75.46
2023-03-06T11:42:04.032Z,75.78
2023-03-06T11:43:04.015Z,75.15
2023-03-06T11:44:04.011Z,75.98
2023-03-06T11:45:04.077Z,75.57
2023-03-06T11:46:04.003Z,75.57
2023-03-06T11:47:03.986Z,75.50
2023-03-06T11:48:03.976Z,75.71
2023-03-06T11:49:03.964Z,75.81
2023-03-06T11:50:03.943Z,75.98
2023-03-06T11:51:06.098Z,76.29
2023-03-06T11:52:03.928Z,75.26
2023-03-06T11:53:03.915Z,76.09
2023-03-06T11:54:03.929Z,76.19
2023-03-06T11:55:03.899Z,76.19
2023-03-06T11:56:03.905Z,75.67
2023-03-06T11:57:03.891Z,76.91
2023-03-06T11:58:03.862Z,76.50
2023-03-06T11:59:03.851Z,76.23
2023-03-06T12:00:03.842Z,77.57
2023-03-06T12:01:03.838Z,77.36
2023-03-06T12:02:03.846Z,77.26
2023-03-06T12:03:03.804Z,77.15
2023-03-06T12:04:03.813Z,77.47
2023-03-06T12:05:03.793Z,76.88
2023-03-06T12:06:03.790Z,77.81
2023-03-06T12:07:05.069Z,79.54
2023-03-06T12:08:03.757Z,79.02
2023-03-06T12:09:03.745Z,79.23
2023-03-06T12:11:03.730Z,79.64
2023-03-06T12:12:03.714Z,78.71
2023-03-06T12:13:03.704Z,79.64
2023-03-06T12:14:04.270Z,79.74
2023-03-06T12:15:03.678Z,79.95
2023-03-06T12:16:03.756Z,79.74
2023-03-06T12:17:03.651Z,79.13
2023-03-06T12:18:03.661Z,79.23
2023-03-06T12:19:03.654Z,79.02
2023-03-06T12:20:03.625Z,80.16
2023-03-06T12:21:03.635Z,79.54
2023-03-06T12:22:03.611Z,80.05
2023-03-06T12:23:14.966Z,80.16
2023-03-06T12:24:03.594Z,79.64
2023-03-06T12:25:03.573Z,80.99
2023-03-06T12:26:03.573Z,79.33
2023-03-06T12:27:03.546Z,79.81
2023-03-06T12:28:03.554Z,80.22
2023-03-06T12:29:03.526Z,81.88
2023-03-06T12:30:03.520Z,80.95
2023-03-06T12:31:03.525Z,80.02
2023-03-06T12:32:03.614Z,80.26
2023-03-06T12:33:03.483Z,80.99
2023-03-06T12:34:03.483Z,81.61
2023-03-06T12:35:05.900Z,81.30
2023-03-06T12:36:03.475Z,81.82
2023-03-06T12:37:03.440Z,81.16
2023-03-06T12:38:03.460Z,82.60
2023-03-06T12:39:03.438Z,81.68
2023-03-06T12:40:03.412Z,81.61
2023-03-06T12:41:03.421Z,81.20
2023-03-06T12:42:04.919Z,82.03
2023-03-06T12:43:03.373Z,81.92
2023-03-06T12:44:03.388Z,81.37
2023-03-06T12:45:03.362Z,82.60
2023-03-06T12:46:03.404Z,81.20
2023-03-06T12:47:03.334Z,80.99
2023-03-06T12:48:03.338Z,80.57
2023-03-06T12:49:03.321Z,80.22
2023-03-06T12:50:03.306Z,80.26
2023-03-06T12:51:03.300Z,80.74
2023-03-06T12:52:03.299Z,81.16
2023-03-06T12:53:03.307Z,80.85
2023-03-06T12:54:03.267Z,82.19